• Join FlightAware (Why Join?)
  • Login
  • US Flag 
05:52AM EST


 

Airport Tracker/Info


-or-


 

Live Flight TrackerFlight Track Log ✈ KAP29 ✈ 21-Jul-2013 ✈ KBOS - KSLK

Flight Track Log - Related Links

Times and Time Zones

All times are in EDT time to prevent confusion due to time zone crossing. See the KAP29 flight status page for this flight to view local times or setup timezone preferences in your user account.

Time Position Orientation Groundspeed Altitude Reporting Facility
EDT Latitude Longitude Course Direction KTS MPH feet Rate Location/Type
02:13PM 42.3833 -71.0000 324° Northwest 110 127 600  Level KA90
02:15PM 42.4167 -71.0333 324° Northwest 118 136 1,900 1,080 Climbing KA90
02:15PM 42.4500 -71.0500 340° North 117 135 2,900 960 Climbing KA90
02:16PM 42.4667 -71.0667 324° Northwest 124 143 3,800 840 Climbing KA90
02:17PM 42.5000 -71.1000 324° Northwest 139 160 4,600 840 Climbing KA90
02:18PM 42.5500 -71.1167 346° North 144 166 5,500 900 Climbing KA90
02:19PM 42.5833 -71.1500 324° Northwest 139 160 6,400 840 Climbing KA90
02:20PM 42.6167 -71.1667 340° North 140 161 7,300 660 Climbing KA90
02:21PM 42.6500 -71.2000 324° Northwest 137 158 7,800 540 Climbing KA90
02:22PM 42.6833 -71.2167 340° North 128 147 8,400 540 Climbing KA90
02:23PM 42.7000 -71.2333 324° Northwest 127 146 8,900 540 Climbing KA90
02:24PM 42.7333 -71.2667 324° Northwest 132 152 9,500 600 Climbing KA90
02:25PM 42.7667 -71.2833 340° North 130 150 10,100 240 Climbing KA90
02:27PM 42.8000 -71.3167 324° Northwest 139 160 10,000  Descending KA90
02:28PM 42.8167 -71.3667 294° West 143 165 10,100  Climbing KA90
02:29PM 42.8333 -71.4167 294° West 145 167 10,100  Level KA90
02:29PM 42.8333 -71.4667 270° West 144 166 10,100  Level KA90
02:31PM 42.8500 -71.5167 294° West 145 167 10,100  Level KA90
02:32PM 42.8500 -71.5833 270° West 145 167 10,100  Level KA90
02:33PM 42.8667 -71.6333 294° West 152 175 10,100 -60 Level KA90
02:34PM 42.8897 -71.6864 301° West 179 206 10,000 -60 Descending Boston Center
02:35PM 42.9439 -71.6856 North 166 191 10,000  Level Boston Center
02:36PM 42.9939 -71.6650 17° North 181 208 10,000  Level Boston Center
02:37PM 43.0417 -71.6675 358° North 176 203 10,100  Climbing Boston Center
02:38PM 43.0836 -71.6811 347° North 162 186 10,100  Level Boston Center
02:39PM 43.1211 -71.7061 334° Northwest 154 177 10,100 -60 Level Boston Center
02:40PM 43.1339 -71.7544 290° West 136 157 10,000 -60 Descending Boston Center
02:41PM 43.1572 -71.7997 305° West 136 157 10,000  Level Boston Center
02:42PM 43.1783 -71.8422 304° West 136 157 10,000  Level Boston Center
02:43PM 43.2036 -71.8847 309° West 146 168 10,000  Level Boston Center
02:44PM 43.2392 -71.9414 311° West 151 174 10,000  Level Boston Center
02:45PM 43.2622 -71.9725 316° Northwest 143 165 10,100  Climbing Boston Center
02:46PM 43.2853 -72.0236 302° West 137 158 10,000 -60 Descending Boston Center
02:47PM 43.2958 -72.0692 288° West 137 158 10,000  Level Boston Center
02:48PM 43.3086 -72.1233 288° West 137 158 10,000  Level Boston Center
02:49PM 43.3233 -72.1633 297° West 137 158 10,000  Level Boston Center
02:50PM 43.3422 -72.2144 297° West 132 152 10,000  Level Boston Center
02:51PM 43.3569 -72.2572 295° West 132 152 10,100  Climbing Boston Center
02:52PM 43.3756 -72.3117 295° West 132 152 10,000 -60 Descending Boston Center
02:53PM 43.3967 -72.3572 303° West 132 152 10,000  Level Boston Center
02:54PM 43.4153 -72.4058 298° West 137 158 10,000  Level Boston Center
02:55PM 43.4342 -72.4486 301° West 137 158 10,000  Level Boston Center
02:56PM 43.4550 -72.4944 302° West 137 158 10,000  Level Boston Center
02:57PM 43.4736 -72.5403 299° West 137 158 10,000  Level Boston Center
02:58PM 43.4944 -72.5831 304° West 137 158 10,000  Level Boston Center
02:59PM 43.5194 -72.6292 307° West 137 158 10,000  Level Boston Center
03:00PM 43.5422 -72.6692 308° West 137 158 10,000  Level Boston Center
03:01PM 43.5650 -72.7094 308° West 142 163 10,000  Level Boston Center
03:02PM 43.5858 -72.7467 308° West 142 163 10,000  Level Boston Center
03:03PM 43.6106 -72.7900 308° West 142 163 10,000  Level Boston Center
03:04PM 43.6356 -72.8331 309° West 142 163 10,000  Level Boston Center
03:05PM 43.6603 -72.8792 307° West 147 169 10,000  Level Boston Center
03:06PM 43.6831 -72.9194 308° West 147 169 10,100  Climbing Boston Center
03:07PM 43.7058 -72.9628 306° West 147 169 10,100  Level Boston Center
03:08PM 43.7328 -73.0089 309° West 147 169 10,100  Level Boston Center
03:09PM 43.7556 -73.0494 308° West 147 169 10,100  Level Boston Center
03:10PM 43.7822 -73.0986 307° West 147 169 10,100  Level Boston Center
03:11PM 43.8050 -73.1392 308° West 147 169 10,100  Level Boston Center
03:12PM 43.8236 -73.1739 307° West 147 169 10,100  Level Boston Center
03:13PM 43.8522 -73.2261 307° West 147 169 10,100  Level Boston Center
03:14PM 43.8875 -73.2583 327° Northwest 147 169 10,100  Level Boston Center
03:15PM 43.9206 -73.2903 325° Northwest 147 169 10,100  Level Boston Center
03:16PM 43.9558 -73.3225 327° Northwest 147 169 10,100  Level Boston Center
03:17PM 43.9889 -73.3547 325° Northwest 147 169 10,100  Level Boston Center
03:18PM 44.0219 -73.3869 325° Northwest 147 169 10,100  Level Boston Center
03:19PM 44.0550 -73.4222 323° Northwest 147 169 10,100  Level Boston Center
03:20PM 44.0903 -73.4517 329° Northwest 147 169 10,100  Level Boston Center
03:21PM 44.1253 -73.4842 326° Northwest 147 169 10,100  Level Boston Center
03:22PM 44.1583 -73.5167 325° Northwest 147 169 10,100  Level Boston Center
03:23PM 44.1956 -73.5461 330° Northwest 147 169 10,100  Level Boston Center
03:24PM 44.2328 -73.5786 328° Northwest 147 169 10,100  Level Boston Center
03:25PM 44.2742 -73.6144 328° Northwest 154 177 10,100  Level Boston Center
03:26PM 44.2928 -73.6322 326° Northwest 149 171 10,100  Level Boston Center
03:27PM 44.3278 -73.6733 320° Northwest 139 160 10,100  Level Boston Center
03:28PM 44.3564 -73.7117 316° Northwest 134 154 10,100 -120 Level Boston Center
03:29PM 44.3936 -73.7331 338° Northwest 134 154 9,900 -360 Descending Boston Center
03:30PM 44.4350 -73.7572 337° Northwest 141 162 9,400 -600 Descending Boston Center
03:31PM 44.4658 -73.7956 318° Northwest 148 170 8,800 -600 Descending Boston Center
03:32PM 44.4903 -73.8339 312° West 148 170 8,200 -660 Descending Boston Center
03:33PM 44.5150 -73.8783 308° West 142 163 7,500 -780 Descending Boston Center
03:34PM 44.5392 -73.9311 303° West 148 170 6,700 -840 Descending Boston Center